createdAt,value
2023-04-11T00:01:51.628Z,9.48
2023-04-11T00:04:18.277Z,9.32
2023-04-11T00:06:44.891Z,9.40
2023-04-11T00:09:11.501Z,9.45
2023-04-11T00:11:38.091Z,9.30
2023-04-11T00:14:04.684Z,9.07
2023-04-11T00:16:31.322Z,9.24
2023-04-11T00:18:58.069Z,9.21
2023-04-11T00:21:24.689Z,9.28
2023-04-11T00:23:51.560Z,9.16
2023-04-11T00:26:18.118Z,9.20
2023-04-11T00:28:44.972Z,9.11
2023-04-11T00:31:11.533Z,9.20
2023-04-11T00:33:39.884Z,9.24
2023-04-11T00:36:07.479Z,9.16
2023-04-11T00:38:34.119Z,9.10
2023-04-11T00:41:00.754Z,9.16
2023-04-11T00:43:27.361Z,8.95
2023-04-11T00:45:53.960Z,8.94
2023-04-11T00:48:21.139Z,8.98
2023-04-11T00:50:47.740Z,9.07
2023-04-11T00:53:14.272Z,9.04
2023-04-11T00:55:40.837Z,9.01
2023-04-11T00:58:07.537Z,9.12
2023-04-11T01:00:34.108Z,9.02
2023-04-11T01:03:00.781Z,8.49
2023-04-11T01:05:27.481Z,8.41
2023-04-11T01:07:54.105Z,8.41
2023-04-11T01:10:20.677Z,8.71
2023-04-11T01:12:47.289Z,8.84
2023-04-11T01:15:13.858Z,8.75
2023-04-11T01:17:40.435Z,8.62
2023-04-11T01:20:07.039Z,8.69
2023-04-11T01:22:33.646Z,8.63
2023-04-11T01:25:00.227Z,8.72
2023-04-11T01:27:26.791Z,8.56
2023-04-11T01:29:53.348Z,8.61
2023-04-11T01:32:20.049Z,8.49
2023-04-11T01:34:46.613Z,8.46
2023-04-11T01:37:13.278Z,8.49
2023-04-11T01:39:39.935Z,8.51
2023-04-11T01:42:06.484Z,8.64
2023-04-11T01:44:33.245Z,8.67
2023-04-11T01:46:59.871Z,8.56
2023-04-11T01:49:26.425Z,8.57
2023-04-11T01:51:53.007Z,8.46
2023-04-11T01:54:19.607Z,8.52
2023-04-11T01:56:46.256Z,8.69
2023-04-11T01:59:12.916Z,8.57
2023-04-11T02:01:39.632Z,8.31
2023-04-11T02:04:06.323Z,8.22
2023-04-11T02:06:32.917Z,8.43
2023-04-11T02:08:59.465Z,8.56
2023-04-11T02:11:26.045Z,8.63
2023-04-11T02:13:52.648Z,8.58
2023-04-11T02:16:19.308Z,8.61
2023-04-11T02:18:45.930Z,8.61
2023-04-11T02:21:12.570Z,8.73
2023-04-11T02:23:39.363Z,8.69
2023-04-11T02:26:05.921Z,8.72
2023-04-11T02:28:32.548Z,8.65
2023-04-11T02:30:59.197Z,8.29
2023-04-11T02:33:25.797Z,8.04
2023-04-11T02:35:52.347Z,8.10
2023-04-11T02:38:19.037Z,8.10
2023-04-11T02:40:45.569Z,8.24
2023-04-11T02:43:12.134Z,7.81
2023-04-11T02:45:38.657Z,7.82
2023-04-11T02:48:05.257Z,7.83
2023-04-11T02:50:31.866Z,7.66
2023-04-11T02:52:58.415Z,7.98
2023-04-11T02:55:24.987Z,7.78
2023-04-11T02:57:51.531Z,7.89
2023-04-11T03:00:18.155Z,7.54
2023-04-11T03:02:44.776Z,7.50
2023-04-11T03:05:11.398Z,7.67
2023-04-11T03:07:37.955Z,7.88
2023-04-11T03:10:04.582Z,8.08
2023-04-11T03:12:31.117Z,7.91
2023-04-11T03:14:57.680Z,7.77
2023-04-11T03:17:24.329Z,7.84
2023-04-11T03:19:50.907Z,8.01
2023-04-11T03:22:17.501Z,8.13
2023-04-11T03:24:44.048Z,8.14
2023-04-11T03:27:10.697Z,8.09
2023-04-11T03:29:37.361Z,8.43
2023-04-11T03:32:04.088Z,8.42
2023-04-11T03:34:30.697Z,8.18
2023-04-11T03:36:57.269Z,8.12
2023-04-11T03:39:23.860Z,8.09
2023-04-11T03:41:50.440Z,8.18
2023-04-11T03:44:17.013Z,8.22
2023-04-11T03:46:43.615Z,8.17
2023-04-11T03:49:10.873Z,8.39
2023-04-11T03:51:37.449Z,8.34
2023-04-11T03:54:04.055Z,8.12
2023-04-11T03:56:32.915Z,8.22
2023-04-11T03:58:59.562Z,8.03
2023-04-11T04:01:26.137Z,7.98
2023-04-11T04:03:52.963Z,8.26
2023-04-11T04:06:21.713Z,8.13
2023-04-11T04:08:48.305Z,8.19
2023-04-11T04:11:14.908Z,8.22
2023-04-11T04:13:41.447Z,8.51
2023-04-11T04:16:08.089Z,8.61
2023-04-11T04:18:34.689Z,8.47
2023-04-11T04:21:02.144Z,8.58
2023-04-11T04:23:28.715Z,8.55
2023-04-11T04:25:55.267Z,8.45
2023-04-11T04:28:21.907Z,8.51
2023-04-11T04:30:48.529Z,8.43
2023-04-11T04:33:15.245Z,8.55
2023-04-11T04:35:41.841Z,8.53
2023-04-11T04:38:08.451Z,8.68
2023-04-11T04:40:35.026Z,8.54
2023-04-11T04:43:01.617Z,8.43
2023-04-11T04:45:28.211Z,8.61
2023-04-11T04:47:54.831Z,8.65
2023-04-11T04:50:21.444Z,8.62
2023-04-11T04:52:48.007Z,8.58
2023-04-11T04:55:14.667Z,8.55
2023-04-11T04:57:41.203Z,8.74
2023-04-11T05:00:07.771Z,8.80
2023-04-11T05:02:34.424Z,8.86
2023-04-11T05:05:01.096Z,8.60
2023-04-11T05:07:27.647Z,8.53
2023-04-11T05:09:55.337Z,8.18
2023-04-11T05:12:21.973Z,8.10
2023-04-11T05:14:48.515Z,8.47
2023-04-11T05:17:15.071Z,8.48
2023-04-11T05:19:41.645Z,8.37
2023-04-11T05:22:08.284Z,8.36
2023-04-11T05:24:34.879Z,8.54
2023-04-11T05:27:01.538Z,8.51
2023-04-11T05:29:28.498Z,8.66
2023-04-11T05:31:55.065Z,8.72
2023-04-11T05:34:21.669Z,8.69
2023-04-11T05:36:48.216Z,8.46
2023-04-11T05:39:14.860Z,8.86
2023-04-11T05:41:41.433Z,9.36
2023-04-11T05:44:08.004Z,9.43
2023-04-11T05:46:34.753Z,9.81
2023-04-11T05:49:01.463Z,10.06
2023-04-11T05:51:28.013Z,10.51
2023-04-11T05:53:54.928Z,10.75
2023-04-11T05:56:21.738Z,10.90
2023-04-11T05:58:48.333Z,11.53
2023-04-11T06:01:14.900Z,11.66
2023-04-11T06:03:41.662Z,11.85
2023-04-11T06:06:08.390Z,11.90
2023-04-11T06:08:34.929Z,11.96
2023-04-11T06:11:01.536Z,12.14
2023-04-11T06:13:28.094Z,12.14
2023-04-11T06:15:54.667Z,12.04
2023-04-11T06:18:21.272Z,12.10
2023-04-11T06:20:47.826Z,12.30
2023-04-11T06:23:14.414Z,12.36
2023-04-11T06:25:41.539Z,12.50
2023-04-11T06:28:08.104Z,12.49
2023-04-11T06:30:34.682Z,12.43
2023-04-11T06:33:01.313Z,12.49
2023-04-11T06:35:27.946Z,12.20
2023-04-11T06:37:54.532Z,12.26
2023-04-11T06:40:21.112Z,12.39
2023-04-11T06:42:47.690Z,12.49
2023-04-11T06:45:14.238Z,12.74
2023-04-11T06:47:40.914Z,12.74
2023-04-11T06:50:07.538Z,12.85
2023-04-11T06:52:34.117Z,13.00
2023-04-11T06:55:00.703Z,13.32
2023-04-11T06:57:27.309Z,13.31
2023-04-11T06:59:53.867Z,13.33
2023-04-11T07:02:20.589Z,13.43
2023-04-11T07:04:47.258Z,13.29
2023-04-11T07:07:13.968Z,13.40
2023-04-11T07:09:40.583Z,13.33
2023-04-11T07:12:07.177Z,13.51
2023-04-11T07:14:33.756Z,13.95
2023-04-11T07:17:00.353Z,14.10
2023-04-11T07:19:26.947Z,13.98
2023-04-11T07:21:53.553Z,14.26
2023-04-11T07:24:20.153Z,14.48
2023-04-11T07:26:46.911Z,14.61
2023-04-11T07:29:14.859Z,14.46
2023-04-11T07:31:41.691Z,14.77
2023-04-11T07:34:08.296Z,14.74
2023-04-11T07:36:34.984Z,14.68
2023-04-11T07:39:01.624Z,14.25
2023-04-11T07:41:28.207Z,14.38
2023-04-11T07:43:55.050Z,14.41
2023-04-11T07:46:21.732Z,14.60
2023-04-11T07:48:48.349Z,15.12
2023-04-11T07:51:14.909Z,15.10
2023-04-11T07:53:41.477Z,15.01
2023-04-11T07:56:08.095Z,15.21
2023-04-11T07:58:34.657Z,15.55
2023-04-11T08:01:01.636Z,15.07
2023-04-11T08:03:28.468Z,15.60
2023-04-11T08:05:55.231Z,15.67
2023-04-11T08:08:21.820Z,15.87
2023-04-11T08:10:50.652Z,15.91
2023-04-11T08:13:18.884Z,16.12
2023-04-11T08:15:45.476Z,15.66
2023-04-11T08:18:12.366Z,15.99
2023-04-11T08:20:39.149Z,16.41
2023-04-11T08:23:05.990Z,16.33
2023-04-11T08:25:32.623Z,15.95
2023-04-11T08:27:59.276Z,16.13
2023-04-11T08:30:25.950Z,15.68
2023-04-11T08:32:52.636Z,15.52
2023-04-11T08:35:19.317Z,15.65
2023-04-11T08:37:45.983Z,15.02
2023-04-11T08:40:12.659Z,14.34
2023-04-11T08:42:39.262Z,13.83
2023-04-11T08:45:05.849Z,14.48
2023-04-11T08:47:32.460Z,15.04
2023-04-11T08:49:59.072Z,15.68
2023-04-11T08:52:25.648Z,16.11
2023-04-11T08:54:52.246Z,15.91
2023-04-11T08:57:18.814Z,15.89
2023-04-11T08:59:45.373Z,15.93
2023-04-11T09:02:12.107Z,15.95
2023-04-11T09:04:38.864Z,16.18
2023-04-11T09:07:05.455Z,16.45
2023-04-11T09:09:32.177Z,16.44
2023-04-11T09:11:58.795Z,16.53
2023-04-11T09:14:25.373Z,16.60
2023-04-11T09:16:52.000Z,16.67
2023-04-11T09:19:18.931Z,16.52
2023-04-11T09:21:45.529Z,16.55
2023-04-11T09:24:12.444Z,16.42
2023-04-11T09:26:39.035Z,16.88
2023-04-11T09:29:05.603Z,17.09
2023-04-11T09:31:32.196Z,17.39
2023-04-11T09:33:59.405Z,17.21
2023-04-11T09:36:26.190Z,17.30
2023-04-11T09:38:52.766Z,17.27
2023-04-11T09:41:19.305Z,17.31
2023-04-11T09:43:45.902Z,17.52
2023-04-11T09:46:12.475Z,17.58
2023-04-11T09:48:46.628Z,17.70
2023-04-11T09:51:18.055Z,17.76
2023-04-11T09:53:47.589Z,17.79
2023-04-11T09:56:14.194Z,18.07
2023-04-11T09:58:40.849Z,18.20
2023-04-11T10:01:07.410Z,17.87
2023-04-11T10:03:36.037Z,17.98
2023-04-11T10:06:02.637Z,18.23
2023-04-11T10:08:29.549Z,18.06
2023-04-11T10:10:56.154Z,18.04
2023-04-11T10:13:22.727Z,18.07
2023-04-11T10:15:49.362Z,17.77
2023-04-11T10:18:15.930Z,17.88
2023-04-11T10:20:42.531Z,17.87
2023-04-11T10:23:09.069Z,18.20
2023-04-11T10:25:35.707Z,18.43
2023-04-11T10:28:02.284Z,18.21
2023-04-11T10:30:28.874Z,17.60
2023-04-11T10:32:55.534Z,17.48
2023-04-11T10:35:22.072Z,17.37
2023-04-11T10:37:48.654Z,17.72
2023-04-11T10:40:15.213Z,17.88
2023-04-11T10:42:41.828Z,18.61
2023-04-11T10:45:08.522Z,19.30
2023-04-11T10:47:35.102Z,19.41
2023-04-11T10:50:01.688Z,19.33
2023-04-11T10:52:28.349Z,19.15
2023-04-11T10:54:55.240Z,19.55
2023-04-11T10:57:21.836Z,20.26
2023-04-11T10:59:48.397Z,20.54
2023-04-11T11:02:15.214Z,20.46
2023-04-11T11:04:41.904Z,20.71
2023-04-11T11:07:08.645Z,20.87
2023-04-11T11:09:35.254Z,20.50
2023-04-11T11:12:01.824Z,20.15
2023-04-11T11:14:28.430Z,20.49
2023-04-11T11:16:55.025Z,20.31
2023-04-11T11:19:21.644Z,19.51
2023-04-11T11:21:48.209Z,19.47
2023-04-11T11:24:14.791Z,20.16
2023-04-11T11:26:41.379Z,20.73
2023-04-11T11:29:07.990Z,20.79
2023-04-11T11:31:34.650Z,20.59
2023-04-11T11:34:18.393Z,20.48
2023-04-11T11:36:47.827Z,20.56
2023-04-11T11:39:14.455Z,20.36
2023-04-11T11:41:41.034Z,20.33
2023-04-11T11:44:07.656Z,20.34
2023-04-11T11:46:34.299Z,20.68
2023-04-11T11:49:01.216Z,20.49
2023-04-11T11:51:28.069Z,20.26
2023-04-11T11:53:54.717Z,20.43
2023-04-11T11:56:21.263Z,21.05
2023-04-11T11:58:48.010Z,21.30
2023-04-11T12:03:46.411Z,21.10
2023-04-11T12:06:13.063Z,21.44
2023-04-11T12:08:39.653Z,21.86
2023-04-11T12:11:06.431Z,21.95
2023-04-11T12:13:33.328Z,22.43
2023-04-11T12:15:59.941Z,22.06
2023-04-11T12:18:26.603Z,21.90
2023-04-11T12:20:53.270Z,21.97
2023-04-11T12:23:19.839Z,22.13
2023-04-11T12:25:46.428Z,22.62
2023-04-11T12:28:13.058Z,22.72
2023-04-11T12:30:39.622Z,23.21
2023-04-11T12:33:06.433Z,23.27
2023-04-11T12:35:33.122Z,23.15
2023-04-11T12:37:59.686Z,23.66
2023-04-11T12:40:26.598Z,22.72
2023-04-11T12:42:57.320Z,22.67
2023-04-11T12:45:24.182Z,23.18
2023-04-11T12:47:50.784Z,23.11
2023-04-11T12:50:17.447Z,23.33
2023-04-11T12:52:44.076Z,23.71
2023-04-11T12:55:10.653Z,24.16
2023-04-11T12:57:37.241Z,24.47
2023-04-11T13:00:03.834Z,24.72
2023-04-11T13:02:38.181Z,24.33
2023-04-11T13:05:09.302Z,23.50
2023-04-11T13:07:36.000Z,24.20
2023-04-11T13:10:02.628Z,23.82
2023-04-11T13:12:30.419Z,24.25
2023-04-11T13:14:56.980Z,24.27
2023-04-11T13:17:23.578Z,24.53
2023-04-11T13:19:50.134Z,24.15
2023-04-11T13:22:16.721Z,22.46
2023-04-11T13:24:43.351Z,22.48
2023-04-11T13:27:09.927Z,23.13
2023-04-11T13:29:36.475Z,23.77
2023-04-11T13:32:03.122Z,23.90
2023-04-11T13:34:29.732Z,24.41
2023-04-11T13:36:56.280Z,24.58
2023-04-11T13:39:22.835Z,25.04
2023-04-11T13:41:49.387Z,24.98
2023-04-11T13:44:15.973Z,24.15
2023-04-11T13:46:42.653Z,22.65
2023-04-11T13:49:09.200Z,22.28
2023-04-11T13:51:35.758Z,23.21
2023-04-11T13:54:02.376Z,23.88
2023-04-11T13:56:28.937Z,23.99
2023-04-11T13:58:55.853Z,24.12
2023-04-11T14:01:22.670Z,24.33
2023-04-11T14:03:49.703Z,24.32
2023-04-11T14:06:16.449Z,24.25
2023-04-11T14:08:43.173Z,23.98
2023-04-11T14:11:09.896Z,24.09
2023-04-11T14:13:36.667Z,24.11
2023-04-11T14:16:12.286Z,23.62
2023-04-11T14:18:38.930Z,23.34
2023-04-11T14:21:05.716Z,23.28
2023-04-11T14:23:32.327Z,23.46
2023-04-11T14:25:58.888Z,23.06
2023-04-11T14:28:26.992Z,22.53
2023-04-11T14:30:54.054Z,22.52
2023-04-11T14:33:20.833Z,22.44
2023-04-11T14:35:47.457Z,22.61
2023-04-11T14:38:14.000Z,22.53
2023-04-11T14:40:40.561Z,22.43
2023-04-11T14:43:07.142Z,22.29
2023-04-11T14:45:33.721Z,22.45
2023-04-11T14:48:00.359Z,21.78
2023-04-11T14:50:28.963Z,21.41
2023-04-11T14:52:55.769Z,21.64
2023-04-11T14:55:22.437Z,21.44
2023-04-11T14:57:49.161Z,21.44
2023-04-11T15:00:15.719Z,21.10
2023-04-11T15:02:42.505Z,20.86
2023-04-11T15:05:09.095Z,20.96
2023-04-11T15:07:35.711Z,21.24
2023-04-11T15:10:02.320Z,20.58
2023-04-11T15:12:28.888Z,20.48
2023-04-11T15:14:55.527Z,20.24
2023-04-11T15:17:22.122Z,20.26
2023-04-11T15:19:48.750Z,20.34
2023-04-11T15:22:15.314Z,19.96
2023-04-11T15:24:42.012Z,19.89
2023-04-11T15:27:08.570Z,19.73
2023-04-11T15:29:37.419Z,19.39
2023-04-11T15:32:03.983Z,19.59
2023-04-11T15:34:30.530Z,19.45
2023-04-11T15:36:57.091Z,19.35
2023-04-11T15:39:23.687Z,19.16
2023-04-11T15:41:50.649Z,19.27
2023-04-11T15:44:17.287Z,18.75
2023-04-11T15:46:45.006Z,19.05
2023-04-11T15:49:12.599Z,19.06
2023-04-11T15:51:39.211Z,19.00
2023-04-11T15:54:05.820Z,18.71
2023-04-11T15:56:32.488Z,18.31
2023-04-11T15:58:59.042Z,17.92
2023-04-11T16:01:25.720Z,17.96
2023-04-11T16:03:52.496Z,17.93
2023-04-11T16:06:19.181Z,18.10
2023-04-11T16:08:45.746Z,17.55
2023-04-11T16:11:12.315Z,17.14
2023-04-11T16:13:38.871Z,16.88
2023-04-11T16:16:05.468Z,17.07
2023-04-11T16:18:32.092Z,17.37
2023-04-11T16:20:58.654Z,17.68
2023-04-11T16:23:25.190Z,17.85
2023-04-11T16:25:52.042Z,17.76
2023-04-11T16:28:18.707Z,17.53
2023-04-11T16:30:45.321Z,17.86
2023-04-11T16:33:11.876Z,17.81
2023-04-11T16:35:38.519Z,17.69
2023-04-11T16:38:05.111Z,17.42
2023-04-11T16:40:31.718Z,17.48
2023-04-11T16:42:58.298Z,17.24
2023-04-11T16:45:24.911Z,17.07
2023-04-11T16:47:51.565Z,17.05
2023-04-11T16:50:18.158Z,17.50
2023-04-11T16:52:44.768Z,17.56
2023-04-11T16:55:11.316Z,17.65
2023-04-11T16:57:37.883Z,17.88
2023-04-11T17:00:04.530Z,17.87
2023-04-11T17:02:31.268Z,17.91
2023-04-11T17:04:58.293Z,17.24
2023-04-11T17:07:24.848Z,17.10
2023-04-11T17:09:51.427Z,17.19
2023-04-11T17:12:17.981Z,17.09
2023-04-11T17:14:44.628Z,16.90
2023-04-11T17:17:11.300Z,16.96
2023-04-11T17:19:38.017Z,17.10
2023-04-11T17:22:04.620Z,17.25
2023-04-11T17:24:31.349Z,17.35
2023-04-11T17:26:57.930Z,17.27
2023-04-11T17:29:24.533Z,17.43
2023-04-11T17:31:51.115Z,17.43
2023-04-11T17:34:17.657Z,17.15
2023-04-11T17:36:44.221Z,16.77
2023-04-11T17:39:10.816Z,16.70
2023-04-11T17:41:37.381Z,16.91
2023-04-11T17:44:03.934Z,17.18
2023-04-11T17:46:30.531Z,17.46
2023-04-11T17:48:57.170Z,17.39
2023-04-11T17:51:23.733Z,17.15
2023-04-11T17:53:50.287Z,17.38
2023-04-11T17:56:16.867Z,17.38
2023-04-11T17:58:44.291Z,17.29
2023-04-11T18:01:10.960Z,17.25
2023-04-11T18:03:37.796Z,17.17
2023-04-11T18:06:04.570Z,17.08
2023-04-11T18:08:49.044Z,17.09
2023-04-11T18:11:16.781Z,16.85
2023-04-11T18:13:43.336Z,16.58
2023-04-11T18:16:09.944Z,16.56
2023-04-11T18:18:36.506Z,16.17
2023-04-11T18:21:04.930Z,16.16
2023-04-11T18:23:33.793Z,16.16
2023-04-11T18:26:00.386Z,16.11
2023-04-11T18:28:26.942Z,15.76
2023-04-11T18:30:53.593Z,15.42
2023-04-11T18:33:20.857Z,15.55
2023-04-11T18:35:47.680Z,15.39
2023-04-11T18:38:14.310Z,15.23
2023-04-11T18:40:40.922Z,15.24
2023-04-11T18:43:07.592Z,14.63
2023-04-11T18:45:34.196Z,14.48
2023-04-11T18:48:00.912Z,14.62
2023-04-11T18:50:27.671Z,14.57
2023-04-11T18:52:56.657Z,14.48
2023-04-11T18:55:26.695Z,14.28
2023-04-11T18:57:57.313Z,14.45
2023-04-11T19:00:25.877Z,14.25
2023-04-11T19:02:52.814Z,14.46
2023-04-11T19:05:19.660Z,14.52
2023-04-11T19:07:46.324Z,14.43
2023-04-11T19:10:12.923Z,14.40
2023-04-11T19:12:39.495Z,14.31
2023-04-11T19:15:06.051Z,14.13
2023-04-11T19:17:32.740Z,14.02
2023-04-11T19:19:59.337Z,13.77
2023-04-11T19:22:25.908Z,13.54
2023-04-11T19:24:55.442Z,13.49
2023-04-11T19:27:23.212Z,13.13
2023-04-11T19:29:52.095Z,13.36
2023-04-11T19:32:18.789Z,13.42
2023-04-11T19:34:45.353Z,12.98
2023-04-11T19:37:11.885Z,13.09
2023-04-11T19:39:38.666Z,12.93
2023-04-11T19:42:05.256Z,13.12
2023-04-11T19:44:31.856Z,13.02
2023-04-11T19:46:58.402Z,13.01
2023-04-11T19:49:24.956Z,12.94
2023-04-11T19:51:51.658Z,12.97
2023-04-11T19:54:18.228Z,12.90
2023-04-11T19:56:44.818Z,12.81
2023-04-11T19:59:11.401Z,12.90
2023-04-11T20:01:38.131Z,13.11
2023-04-11T20:04:04.992Z,13.01
2023-04-11T20:06:31.645Z,12.94
2023-04-11T20:08:59.247Z,13.04
2023-04-11T20:11:27.396Z,12.98
2023-04-11T20:13:55.803Z,13.10
2023-04-11T20:16:22.690Z,12.91
2023-04-11T20:18:49.273Z,12.53
2023-04-11T20:21:15.960Z,12.71
2023-04-11T20:23:42.509Z,12.62
2023-04-11T20:26:09.091Z,12.62
2023-04-11T20:28:35.625Z,12.75
2023-04-11T20:31:02.230Z,12.60
2023-04-11T20:33:28.904Z,12.68
2023-04-11T20:35:55.503Z,12.49
2023-04-11T20:38:22.098Z,12.37
2023-04-11T20:40:48.702Z,12.44
2023-04-11T20:43:15.253Z,12.35
2023-04-11T20:45:41.838Z,12.26
2023-04-11T20:48:08.428Z,12.08
2023-04-11T20:50:35.060Z,12.26
2023-04-11T20:53:01.606Z,11.44
2023-04-11T20:55:28.161Z,11.49
2023-04-11T20:57:54.753Z,11.69
2023-04-11T21:00:21.324Z,11.86
2023-04-11T21:02:48.010Z,11.93
2023-04-11T21:05:14.646Z,11.72
2023-04-11T21:07:41.841Z,11.78
2023-04-11T21:10:08.412Z,11.92
2023-04-11T21:12:34.985Z,12.03
2023-04-11T21:15:01.557Z,12.10
2023-04-11T21:17:28.177Z,12.10
2023-04-11T21:19:54.750Z,12.03
2023-04-11T21:22:21.293Z,12.07
2023-04-11T21:24:47.849Z,12.20
2023-04-11T21:27:14.441Z,12.25
2023-04-11T21:29:41.048Z,12.24
2023-04-11T21:32:07.768Z,12.30
2023-04-11T21:34:34.309Z,12.30
2023-04-11T21:37:01.002Z,12.31
2023-04-11T21:39:27.580Z,12.21
2023-04-11T21:41:54.210Z,12.37
2023-04-11T21:44:20.824Z,12.06
2023-04-11T21:46:47.406Z,12.24
2023-04-11T21:49:13.985Z,12.29
2023-04-11T21:51:40.556Z,11.80
2023-04-11T21:54:07.156Z,11.81
2023-04-11T21:56:33.730Z,12.02
2023-04-11T21:59:00.263Z,12.05
2023-04-11T22:01:27.001Z,11.84
2023-04-11T22:03:53.817Z,11.93
2023-04-11T22:06:20.540Z,12.13
2023-04-11T22:08:47.128Z,12.12
2023-04-11T22:11:13.677Z,12.05
2023-04-11T22:13:40.220Z,12.08
2023-04-11T22:16:06.817Z,12.03
2023-04-11T22:18:34.166Z,12.07
2023-04-11T22:21:01.458Z,11.95
2023-04-11T22:23:28.167Z,11.66
2023-04-11T22:25:54.691Z,11.69
2023-04-11T22:28:21.589Z,11.57
2023-04-11T22:30:48.194Z,11.62
2023-04-11T22:33:14.792Z,11.63
2023-04-11T22:35:41.382Z,11.50
2023-04-11T22:38:07.948Z,11.49
2023-04-11T22:40:34.514Z,11.49
2023-04-11T22:43:01.154Z,11.47
2023-04-11T22:45:27.725Z,11.57
2023-04-11T22:47:54.618Z,11.33
2023-04-11T22:50:21.276Z,11.14
2023-04-11T22:52:47.832Z,11.21
2023-04-11T22:55:14.392Z,11.34
2023-04-11T22:57:41.001Z,11.00
2023-04-11T23:00:07.602Z,10.70
2023-04-11T23:02:34.385Z,10.88
2023-04-11T23:05:01.068Z,10.97
2023-04-11T23:07:27.710Z,11.08
2023-04-11T23:09:54.265Z,11.04
2023-04-11T23:12:20.814Z,11.10
2023-04-11T23:14:47.366Z,11.24
2023-04-11T23:17:13.977Z,11.43
2023-04-11T23:19:40.534Z,11.51
2023-04-11T23:22:07.061Z,11.49
2023-04-11T23:24:33.641Z,11.55
2023-04-11T23:27:00.193Z,11.67
2023-04-11T23:29:26.752Z,11.60
2023-04-11T23:31:53.286Z,11.63
2023-04-11T23:34:19.896Z,11.76
2023-04-11T23:36:46.513Z,11.67
2023-04-11T23:39:13.128Z,11.86
2023-04-11T23:41:39.696Z,11.86
2023-04-11T23:44:06.274Z,12.06
2023-04-11T23:46:32.904Z,11.92
2023-04-11T23:48:59.538Z,11.85
2023-04-11T23:51:26.212Z,11.93
2023-04-11T23:53:52.821Z,11.74
2023-04-11T23:56:19.716Z,11.96
2023-04-11T23:58:46.314Z,12.13
